Time;durP1;ratioP1;P1;durP2;ratioP2;P2;SDS_P1;SDS_P2;PMS_P1;PMS_P2;Temp;Humidity;BMP_temperature;BMP_pressure;BME280_temperature;BME280_humidity;BME280_pressure;Samples;Min_cycle;Max_cycle;Signal;HPM_P1;HPM_P2
2021/03/25 00:00:59;;;;;;;16.17;6.93;;;-0.50;88.80;;;;;;4207106;28;20663;-61
2021/03/25 00:03:03;;;;;;;20.87;8.40;;;-0.50;88.60;;;;;;4211472;28;20741;-63
2021/03/25 00:05:07;;;;;;;16.33;8.37;;;-0.50;88.70;;;;;;4211832;28;20277;-62
2021/03/25 00:07:08;;;;;;;19.93;10.40;;;-0.50;89.50;;;;;;4210409;28;20756;-54
2021/03/25 00:09:24;;;;;;;25.63;10.53;;;-0.60;90.10;;;;;;4211588;28;20269;-63
2021/03/25 00:11:25;;;;;;;18.17;9.87;;;-0.60;90.50;;;;;;4211293;28;20686;-62
2021/03/25 00:13:26;;;;;;;18.23;8.10;;;-0.70;90.60;;;;;;4211632;28;20318;-63
2021/03/25 00:15:28;;;;;;;16.00;7.20;;;-0.70;90.90;;;;;;4211569;28;20272;-62
2021/03/25 00:17:29;;;;;;;15.67;6.63;;;-0.70;90.90;;;;;;4211232;28;20269;-62
2021/03/25 00:19:31;;;;;;;14.50;5.83;;;-0.70;90.70;;;;;;4212107;28;20326;-62
2021/03/25 00:21:32;;;;;;;11.63;4.80;;;-0.60;90.60;;;;;;4210834;28;20330;-61
2021/03/25 00:23:34;;;;;;;11.07;4.33;;;-0.60;90.10;;;;;;4212634;28;20334;-59
2021/03/25 00:25:37;;;;;;;8.27;4.47;;;-0.60;90.10;;;;;;4210102;28;20783;-61
2021/03/25 00:27:38;;;;;;;9.77;4.50;;;-0.60;89.90;;;;;;4212452;28;20602;-63
2021/03/25 00:29:39;;;;;;;11.07;4.07;;;-0.60;89.50;;;;;;4210509;28;20273;-62
2021/03/25 00:31:42;;;;;;;9.80;4.67;;;-0.60;89.40;;;;;;4212175;28;20333;-62
2021/03/25 00:33:43;;;;;;;8.37;3.90;;;-0.60;89.50;;;;;;4210485;28;20879;-62
2021/03/25 00:35:45;;;;;;;9.33;3.90;;;-0.60;90.00;;;;;;4211969;28;20272;-62
2021/03/25 00:37:46;;;;;;;9.17;4.23;;;-0.60;89.60;;;;;;4210593;28;20334;-63
2021/03/25 00:39:47;;;;;;;11.20;5.70;;;-0.60;89.40;;;;;;4212189;28;20257;-62
2021/03/25 00:41:48;;;;;;;9.47;4.53;;;-0.70;89.80;;;;;;4210479;28;20813;-63
2021/03/25 00:43:49;;;;;;;10.83;3.97;;;-0.70;90.00;;;;;;4211635;28;20272;-62
2021/03/25 00:45:51;;;;;;;9.27;4.20;;;-0.70;90.10;;;;;;4210512;28;20276;-63
2021/03/25 00:47:52;;;;;;;10.17;4.13;;;-0.70;90.10;;;;;;4210348;28;20750;-64
2021/03/25 00:49:53;;;;;;;10.90;4.60;;;-0.80;90.20;;;;;;4211549;28;21328;-63
2021/03/25 00:51:54;;;;;;;9.33;4.40;;;-0.80;90.30;;;;;;4209170;28;20341;-62
2021/03/25 00:53:56;;;;;;;8.07;3.90;;;-0.80;90.70;;;;;;4211907;28;20314;-61
2021/03/25 00:55:59;;;;;;;10.60;4.70;;;-0.90;90.60;;;;;;4209839;28;20265;-63
2021/03/25 00:58:00;;;;;;;10.47;4.87;;;-0.80;90.70;;;;;;4211928;28;20741;-62
2021/03/25 01:00:01;;;;;;;28.43;10.43;;;-0.80;90.80;;;;;;4210032;28;20303;-62
2021/03/25 01:02:02;;;;;;;42.73;18.50;;;-0.90;90.70;;;;;;4211670;28;20748;-62
2021/03/25 01:04:04;;;;;;;50.73;20.37;;;-0.80;90.70;;;;;;4209699;28;20329;-62
2021/03/25 01:06:06;;;;;;;61.23;22.77;;;-0.90;90.80;;;;;;4211568;28;20334;-62
2021/03/25 01:08:09;;;;;;;42.83;16.87;;;-0.90;90.80;;;;;;4210193;28;20264;-62
2021/03/25 01:10:17;;;;;;;57.70;22.73;;;-0.90;90.70;;;;;;4211786;28;20342;-62
2021/03/25 01:12:19;;;;;;;30.47;14.53;;;-0.90;91.00;;;;;;4210272;28;21081;-61
2021/03/25 01:14:22;;;;;;;25.47;11.60;;;-0.90;91.10;;;;;;4207150;28;20281;-62
2021/03/25 01:16:27;;;;;;;13.37;7.53;;;-0.90;91.10;;;;;;4207717;28;20326;-62
2021/03/25 01:18:29;;;;;;;12.30;7.03;;;-1.00;91.10;;;;;;4208805;28;20743;-62
2021/03/25 01:20:37;;;;;;;12.30;6.30;;;-1.00;91.10;;;;;;4208084;28;20322;-61
2021/03/25 01:22:38;;;;;;;11.20;5.53;;;-1.00;91.10;;;;;;4206477;28;20303;-63
2021/03/25 01:24:39;;;;;;;7.93;4.70;;;-1.00;91.20;;;;;;4207929;28;20256;-61
2021/03/25 01:26:40;;;;;;;9.17;5.70;;;-1.00;91.20;;;;;;4207617;28;20326;-61
2021/03/25 01:28:41;;;;;;;9.63;5.97;;;-1.00;91.10;;;;;;4208589;28;20276;-62
2021/03/25 01:30:45;;;;;;;13.87;7.37;;;-1.00;91.10;;;;;;4208094;28;20292;-63
2021/03/25 01:32:47;;;;;;;12.37;7.77;;;-1.00;91.10;;;;;;4209033;28;20260;-62
2021/03/25 01:34:48;;;;;;;16.33;9.60;;;-1.00;91.00;;;;;;4207054;28;20257;-61
2021/03/25 01:36:50;;;;;;;29.17;14.70;;;-1.00;91.00;;;;;;4208661;28;20614;-60
2021/03/25 01:38:51;;;;;;;30.43;14.13;;;-1.00;91.00;;;;;;4206586;28;20749;-63
2021/03/25 01:40:57;;;;;;;28.63;13.00;;;-1.00;91.00;;;;;;4208403;28;20932;-62
2021/03/25 01:43:16;;;;;;;31.97;11.63;;;-1.00;91.00;;;;;;4206969;28;20812;-62
2021/03/25 01:45:29;;;;;;;25.77;9.83;;;-1.10;91.00;;;;;;4208328;28;20277;-62
2021/03/25 01:47:30;;;;;;;16.50;7.30;;;-1.10;90.90;;;;;;4206924;28;20753;-62
2021/03/25 01:49:32;;;;;;;42.10;16.47;;;-1.10;91.00;;;;;;4208780;28;20277;-62
2021/03/25 01:51:57;;;;;;;40.00;17.00;;;-1.10;91.10;;;;;;4206924;28;20681;-61
2021/03/25 01:54:26;;;;;;;28.13;11.77;;;-1.10;91.50;;;;;;4208700;28;20268;-63
2021/03/25 01:56:36;;;;;;;45.20;14.47;;;-1.20;91.80;;;;;;4206679;28;20280;-62
2021/03/25 01:59:14;;;;;;;23.85;10.88;;;-1.20;92.10;;;;;;4208165;28;20281;-60
2021/03/25 02:01:42;;;;;;;23.30;10.23;;;-1.30;92.00;;;;;;4194001;28;20769;-62
2021/03/25 02:03:57;;;;;;;28.20;11.73;;;-1.30;91.70;;;;;;4185655;28;20310;-62
2021/03/25 02:06:13;;;;;;;31.23;14.33;;;-1.30;92.00;;;;;;4207826;28;20277;-63
2021/03/25 02:08:31;;;;;;;20.87;9.10;;;-1.30;92.00;;;;;;4207094;28;20268;-62
2021/03/25 02:10:46;;;;;;;23.40;10.63;;;-1.30;91.90;;;;;;4207577;28;20296;-63
2021/03/25 02:13:11;;;;;;;38.27;16.00;;;-1.40;91.90;;;;;;4206319;28;20249;-62
2021/03/25 02:15:35;;;;;;;36.70;14.57;;;-1.30;92.10;;;;;;4208409;28;20303;-63
2021/03/25 02:17:53;;;;;;;27.93;13.47;;;-1.40;92.20;;;;;;4205936;28;20249;-62
2021/03/25 02:20:24;;;;;;;29.80;12.27;;;-1.30;92.30;;;;;;4208342;28;20695;-61
2021/03/25 02:22:46;;;;;;;30.60;12.73;;;-1.40;92.00;;;;;;4206442;28;20257;-62
2021/03/25 02:25:10;;;;;;;25.20;11.83;;;-1.30;92.20;;;;;;4207186;28;20031;-63
2021/03/25 02:27:33;;;;;;;21.57;9.70;;;-1.30;92.00;;;;;;4205732;28;20750;-61
2021/03/25 02:29:55;;;;;;;22.77;10.43;;;-1.40;91.80;;;;;;4207165;28;20275;-62
2021/03/25 02:32:04;;;;;;;21.30;10.93;;;-1.40;92.10;;;;;;4207401;28;20331;-62
2021/03/25 02:34:12;;;;;;;30.93;15.07;;;-1.40;92.20;;;;;;4206990;28;20326;-61
2021/03/25 02:36:17;;;;;;;18.40;8.63;;;-1.40;92.40;;;;;;4206075;28;20261;-61
2021/03/25 02:38:48;;;;;;;19.93;9.43;;;-1.50;92.30;;;;;;4207190;28;20269;-63
2021/03/25 02:40:54;;;;;;;24.83;7.05;;;-1.40;92.20;;;;;;4207698;28;20273;-63
2021/03/25 02:43:35;;;;;;;13.30;6.57;;;-1.40;91.90;;;;;;4206683;28;20089;-61
2021/03/25 02:45:45;;;;;;;15.13;5.93;;;-1.50;91.80;;;;;;4194947;28;20326;-64
2021/03/25 02:47:49;;;;;;;12.55;5.80;;;-1.40;91.50;;;;;;4204681;28;20261;-62
2021/03/25 02:50:26;;;;;;;12.47;4.97;;;-1.40;91.30;;;;;;4207351;28;20806;-62
2021/03/25 02:52:36;;;;;;;12.40;5.20;;;-1.40;91.20;;;;;;4186426;28;20285;-62
2021/03/25 02:54:37;;;;;;;13.30;7.37;;;-1.40;91.10;;;;;;4200292;28;20269;-59
2021/03/25 02:56:54;;;;;;;13.17;4.40;;;-1.40;91.10;;;;;;4205642;28;20277;-60
2021/03/25 02:59:08;;;;;;;18.73;7.40;;;-1.40;91.10;;;;;;4207480;28;20746;-61
2021/03/25 03:01:12;;;;;;;18.73;7.27;;;-1.40;91.10;;;;;;4205455;28;20273;-61
2021/03/25 03:03:21;;;;;;;18.83;6.67;;;-1.40;91.10;;;;;;4207946;28;20277;-63
2021/03/25 03:05:25;;;;;;;12.97;5.20;;;-1.40;91.10;;;;;;4205636;28;20820;-62
2021/03/25 03:07:40;;;;;;;7.40;3.80;;;-1.40;91.00;;;;;;4207810;28;20280;-61
2021/03/25 03:09:46;;;;;;;11.00;4.10;;;-1.50;90.90;;;;;;4205606;28;20606;-61
2021/03/25 03:11:49;;;;;;;7.43;3.63;;;-1.40;90.90;;;;;;4207113;28;20318;-61
2021/03/25 03:13:54;;;;;;;7.63;4.67;;;-1.50;90.80;;;;;;4204504;28;20789;-62
2021/03/25 03:16:19;;;;;;;9.23;4.60;;;-1.50;90.90;;;;;;4206758;28;20268;-62
2021/03/25 03:18:41;;;;;;;6.67;2.90;;;-1.50;91.10;;;;;;4204231;28;20310;-62
2021/03/25 03:20:52;;;;;;;5.37;2.30;;;-1.50;91.30;;;;;;4206889;28;20802;-61
2021/03/25 03:22:53;;;;;;;;;;;-1.60;91.10;;;;;;4205566;28;20598;-62
2021/03/25 03:24:54;;;;;;;;;;;-1.60;91.30;;;;;;4207769;28;19949;-62
2021/03/25 03:27:21;;;;;;;10.73;3.47;;;-1.60;91.10;;;;;;4205243;28;19914;-61
2021/03/25 03:29:24;;;;;;;10.50;3.63;;;-1.60;91.10;;;;;;4202524;28;20097;-62
2021/03/25 03:31:29;;;;;;;14.43;5.90;;;-1.60;91.20;;;;;;4205612;28;20808;-60
2021/03/25 03:33:47;;;;;;;11.63;5.27;;;-1.60;91.30;;;;;;4207636;28;20272;-62
2021/03/25 03:35:58;;;;;;;10.93;3.73;;;-1.70;91.40;;;;;;4204575;28;20333;-61
2021/03/25 03:38:04;;;;;;;5.17;2.37;;;-1.70;91.20;;;;;;4206498;28;20257;-61
2021/03/25 03:40:13;;;;;;;8.23;4.13;;;-1.70;91.20;;;;;;4205117;28;20342;-62
2021/03/25 03:42:17;;;;;;;7.63;3.97;;;-1.80;91.50;;;;;;4206869;28;20268;-62
2021/03/25 03:44:29;;;;;;;8.40;4.20;;;-1.80;91.80;;;;;;4205106;28;20764;-61
2021/03/25 03:46:32;;;;;;;10.23;4.07;;;-1.80;92.00;;;;;;4206866;28;20268;-61
2021/03/25 03:48:47;;;;;;;11.00;5.40;;;-1.80;92.00;;;;;;4204637;28;20731;-62
2021/03/25 03:50:53;;;;;;;10.87;4.77;;;-1.80;92.00;;;;;;4206882;28;20288;-62
2021/03/25 03:52:55;;;;;;;10.00;4.57;;;-1.80;91.90;;;;;;4205166;28;20274;-62
2021/03/25 03:54:57;;;;;;;10.47;4.93;;;-1.80;91.90;;;;;;4206745;28;20061;-62
2021/03/25 03:57:25;;;;;;;9.70;4.80;;;-1.80;92.00;;;;;;4204525;28;20405;-62
2021/03/25 03:59:35;;;;;;;12.27;5.70;;;-1.70;92.00;;;;;;4206280;28;20382;-61
2021/03/25 04:01:44;;;;;;;11.20;4.85;;;-1.80;91.90;;;;;;4204723;28;20659;-62
2021/03/25 04:03:48;;;;;;;21.03;8.73;;;-1.70;91.80;;;;;;4206951;28;20054;-62
2021/03/25 04:06:02;;;;;;;16.83;8.27;;;-1.70;92.00;;;;;;4204479;28;20300;-61
2021/03/25 04:08:06;;;;;;;14.53;6.43;;;-1.70;92.00;;;;;;4206888;28;20285;-61
2021/03/25 04:10:24;;;;;;;17.37;7.47;;;-1.80;92.00;;;;;;4204718;28;20310;-56
2021/03/25 04:12:32;;;;;;;22.30;8.93;;;-1.70;92.00;;;;;;4206824;28;20281;-62
2021/03/25 04:14:51;;;;;;;25.97;9.37;;;-1.80;92.00;;;;;;4204848;28;20345;-63
2021/03/25 04:16:55;;;;;;;15.47;6.70;;;-1.80;92.20;;;;;;4206095;28;20265;-62
2021/03/25 04:18:58;;;;;;;19.20;7.27;;;-1.80;92.10;;;;;;4204610;28;20612;-62
2021/03/25 04:21:05;;;;;;;20.43;8.33;;;-1.70;92.20;;;;;;4206036;28;20261;-63
2021/03/25 04:23:10;;;;;;;18.97;8.30;;;-1.80;92.20;;;;;;4205304;28;20306;-61
2021/03/25 04:25:21;;;;;;;24.93;9.63;;;-1.80;92.30;;;;;;4206536;28;20253;-61
2021/03/25 04:27:28;;;;;;;17.80;8.20;;;-1.70;92.20;;;;;;4204657;28;20322;-61
2021/03/25 04:30:06;;;;;;;12.13;5.57;;;-1.70;92.30;;;;;;4205002;28;20058;-62
2021/03/25 04:32:08;;;;;;;22.53;6.00;;;-1.70;92.40;;;;;;4178815;28;20335;-62
2021/03/25 04:34:10;;;;;;;18.93;6.90;;;-1.70;92.40;;;;;;4188923;28;21218;-62
2021/03/25 04:36:21;;;;;;;17.00;7.23;;;-1.70;92.80;;;;;;4187993;28;20299;-61
2021/03/25 04:38:24;;;;;;;;;;;-1.70;92.80;;;;;;4190124;28;20262;-62
2021/03/25 04:40:30;;;;;;;17.05;7.47;;;-1.70;94.50;;;;;;4187660;28;20945;-63
2021/03/25 04:42:31;;;;;;;18.60;7.80;;;-1.70;93.10;;;;;;4189535;28;20186;-62
2021/03/25 04:44:49;;;;;;;15.20;5.93;;;-1.70;93.40;;;;;;4194063;28;20655;-62
2021/03/25 04:47:14;;;;;;;11.80;5.80;;;-1.70;93.30;;;;;;4205764;28;20594;-62
2021/03/25 04:49:39;;;;;;;15.30;5.07;;;-1.70;93.30;;;;;;4206068;28;20368;-62
2021/03/25 04:51:40;;;;;;;11.60;3.87;;;-1.60;93.50;;;;;;4208795;28;20350;-60
2021/03/25 04:53:43;;;;;;;11.17;4.07;;;-1.60;93.20;;;;;;4207397;28;20322;-61
2021/03/25 04:55:44;;;;;;;11.80;4.45;;;-1.50;93.10;;;;;;4208970;28;20314;-61
2021/03/25 04:57:59;;;;;;;12.60;4.70;;;-1.40;93.20;;;;;;4207382;28;20085;-64
2021/03/25 05:00:06;;;;;;;14.80;6.07;;;-1.30;93.10;;;;;;4208665;28;20299;-62
2021/03/25 05:02:10;;;;;;;18.20;6.60;;;-1.20;93.20;;;;;;4204764;28;20659;-64
2021/03/25 05:04:13;;;;;;;16.37;7.50;;;-1.10;93.50;;;;;;4209111;28;20794;-60
2021/03/25 05:06:24;;;;;;;16.53;6.37;;;-0.80;93.40;;;;;;4206989;28;20673;-62
2021/03/25 05:08:30;;;;;;;;;;;-0.60;93.20;;;;;;4210558;27;20341;-62
2021/03/25 05:10:54;;;;;;;13.20;6.03;;;-0.50;93.40;;;;;;4206885;28;19908;-63
2021/03/25 05:12:57;;;;;;;16.80;7.27;;;-0.40;92.70;;;;;;4205340;28;20281;-63
2021/03/25 05:15:09;;;;;;;16.07;6.57;;;-0.30;92.50;;;;;;4207703;28;20617;-64
2021/03/25 05:17:32;;;;;;;20.20;8.57;;;-0.30;92.50;;;;;;4191657;28;20273;-61
2021/03/25 05:19:44;;;;;;;23.30;8.63;;;-0.30;92.50;;;;;;4197169;28;21118;-65
2021/03/25 05:22:23;;;;;;;16.77;8.13;;;-0.20;92.50;;;;;;4208825;28;20302;-61
2021/03/25 05:24:42;;;;;;;19.23;7.23;;;-0.20;92.40;;;;;;4205399;28;20265;-61
2021/03/25 05:26:49;;;;;;;14.20;7.87;;;-0.30;92.20;;;;;;4207837;28;20812;-61
2021/03/25 05:28:59;;;;;;;25.20;7.23;;;-0.30;92.10;;;;;;4206871;28;20760;-60
2021/03/25 05:31:01;;;;;;;18.03;6.73;;;-0.30;91.90;;;;;;4208571;28;20293;-62
2021/03/25 05:33:08;;;;;;;16.30;5.40;;;-0.40;91.90;;;;;;4207320;28;20314;-61
2021/03/25 05:35:14;;;;;;;15.63;6.07;;;-0.30;91.70;;;;;;4208767;28;20414;-62
2021/03/25 05:37:16;;;;;;;12.73;5.00;;;-0.30;91.40;;;;;;4206481;28;20284;-61
2021/03/25 05:39:17;;;;;;;11.57;4.37;;;-0.30;91.10;;;;;;4208554;28;20356;-63
2021/03/25 05:41:33;;;;;;;12.30;4.73;;;-0.40;91.20;;;;;;4206495;28;20322;-65
2021/03/25 05:44:22;;;;;;;14.37;4.20;;;-0.30;91.00;;;;;;4208035;28;20284;-63
2021/03/25 05:46:28;;;;;;;15.57;4.27;;;0.10;90.40;;;;;;4187762;28;20266;-64
2021/03/25 05:48:50;;;;;;;10.70;4.33;;;0.60;90.00;;;;;;4187498;28;20315;-63
2021/03/25 05:51:04;;;;;;;9.27;4.77;;;1.10;88.20;;;;;;4188068;28;20273;-65
2021/03/25 05:53:18;;;;;;;8.13;4.07;;;1.70;86.90;;;;;;4191797;28;20280;-63
2021/03/25 05:55:44;;;;;;;11.60;5.47;;;2.40;83.10;;;;;;4207387;28;20337;-63
2021/03/25 05:57:54;;;;;;;8.97;4.00;;;3.10;79.10;;;;;;4206004;28;20829;-64
2021/03/25 06:00:07;;;;;;;54.65;17.55;;;3.70;79.80;;;;;;4207679;28;20338;-61
2021/03/25 06:02:31;;;;;;;43.83;16.13;;;4.40;74.60;;;;;;4206302;28;20040;-64
2021/03/25 06:04:37;;;;;;;34.20;12.33;;;5.00;71.40;;;;;;4208265;28;20752;-63
2021/03/25 06:07:16;;;;;;;31.43;12.07;;;5.30;71.80;;;;;;4206141;28;20261;-63
2021/03/25 06:09:54;;;;;;;27.90;11.97;;;6.10;69.60;;;;;;4207644;28;20265;-69
2021/03/25 06:12:03;;;;;;;19.77;8.00;;;6.50;63.20;;;;;;4204724;28;20296;-67
2021/03/25 06:14:26;;;;;;;17.83;8.00;;;6.60;65.00;;;;;;4207100;28;20261;-67
2021/03/25 06:16:28;;;;;;;13.40;7.47;;;6.50;63.40;;;;;;4204747;28;20280;-69
2021/03/25 06:18:44;;;;;;;16.53;6.50;;;5.80;63.10;;;;;;4207440;28;20598;-68
2021/03/25 06:20:50;;;;;;;16.33;8.83;;;5.90;63.40;;;;;;4206173;28;20265;-67
2021/03/25 06:22:54;;;;;;;12.83;5.40;;;5.90;63.90;;;;;;4207033;28;20594;-69
2021/03/25 06:25:17;;;;;;;16.63;5.20;;;6.10;62.80;;;;;;4205948;28;20322;-69
2021/03/25 06:27:55;;;;;;;15.83;6.63;;;5.80;61.70;;;;;;4206741;28;21096;-68
2021/03/25 06:30:03;;;;;;;18.83;4.53;;;5.90;61.60;;;;;;4206625;28;20284;-67
2021/03/25 06:32:20;;;;;;;11.00;4.00;;;5.90;61.30;;;;;;4206043;28;20288;-64
2021/03/25 06:34:30;;;;;;;9.60;5.30;;;5.80;59.70;;;;;;4207578;28;20264;-71
2021/03/25 06:36:50;;;;;;;9.52;4.45;;;5.90;61.40;;;;;;4205677;28;20892;-65
2021/03/25 06:38:57;;;;;;;12.50;4.23;;;6.50;59.30;;;;;;4206688;28;20024;-65
2021/03/25 06:41:11;;;;;;;11.20;5.10;;;6.60;59.70;;;;;;4205548;28;20318;-64
2021/03/25 06:43:37;;;;;;;7.47;4.10;;;6.90;58.60;;;;;;4207536;28;20265;-64
2021/03/25 06:45:44;;;;;;;10.50;4.30;;;7.20;56.70;;;;;;4205122;28;20253;-65
2021/03/25 06:47:59;;;;;;;16.30;6.47;;;6.90;57.20;;;;;;4206743;28;20337;-65
2021/03/25 06:50:02;;;;;;;16.27;4.90;;;6.60;57.50;;;;;;4205785;28;20268;-65
2021/03/25 06:52:12;;;;;;;9.50;4.97;;;6.80;58.20;;;;;;4206597;28;20824;-65
2021/03/25 06:54:25;;;;;;;8.23;4.13;;;7.60;57.70;;;;;;4205364;28;20322;-65
2021/03/25 06:56:34;;;;;;;8.80;4.47;;;8.50;55.70;;;;;;4207027;28;20280;-64
2021/03/25 06:58:45;;;;;;;16.83;5.17;;;8.30;55.40;;;;;;4205287;28;21044;-65
2021/03/25 07:00:56;;;;;;;8.77;4.60;;;8.20;54.60;;;;;;4206152;28;20845;-68
2021/03/25 07:02:58;;;;;;;11.93;5.60;;;8.10;55.00;;;;;;4205397;28;20245;-65
2021/03/25 07:05:01;;;;;;;15.50;4.93;;;7.90;54.70;;;;;;4207122;28;20097;-69
2021/03/25 07:07:07;;;;;;;15.17;6.00;;;7.90;55.40;;;;;;4205808;28;20268;-64
2021/03/25 07:09:09;;;;;;;12.93;5.17;;;7.80;55.40;;;;;;4206681;28;20739;-64
2021/03/25 07:11:16;;;;;;;15.77;6.20;;;7.50;55.00;;;;;;4204210;28;20073;-65
2021/03/25 07:13:38;;;;;;;11.10;4.80;;;7.50;55.90;;;;;;4205261;28;20326;-69
2021/03/25 07:15:40;;;;;;;16.03;5.53;;;7.80;55.50;;;;;;4205381;28;20488;-65
2021/03/25 07:17:43;;;;;;;12.73;5.07;;;7.50;54.90;;;;;;4206448;28;20040;-65
2021/03/25 07:19:47;;;;;;;14.47;5.20;;;7.50;55.20;;;;;;4205089;28;20310;-67
2021/03/25 07:22:13;;;;;;;10.77;4.20;;;8.00;55.20;;;;;;4206257;28;20337;-64
2021/03/25 07:24:32;;;;;;;10.67;4.67;;;8.40;54.90;;;;;;4205185;28;21502;-68
2021/03/25 07:26:38;;;;;;;8.40;4.60;;;9.00;53.20;;;;;;4206289;28;20027;-67
2021/03/25 07:28:39;;;;;;;9.77;4.07;;;9.30;52.80;;;;;;4204997;28;20032;-69
2021/03/25 07:30:57;;;;;;;10.13;4.40;;;9.50;53.00;;;;;;4206222;28;20024;-67
2021/03/25 07:33:08;;;;;;;9.83;4.73;;;9.70;52.50;;;;;;4204489;28;20051;-61
2021/03/25 07:35:34;;;;;;;12.20;3.43;;;9.80;52.00;;;;;;4206759;28;20035;-67
2021/03/25 07:37:39;;;;;;;9.17;4.13;;;9.40;49.50;;;;;;4204526;28;20036;-66
2021/03/25 07:39:50;;;;;;;8.37;4.33;;;9.40;51.10;;;;;;4206040;28;20036;-63
2021/03/25 07:41:53;;;;;;;8.27;4.73;;;9.70;50.60;;;;;;4204360;28;20070;-63
2021/03/25 07:44:25;;;;;;;13.70;6.03;;;9.90;50.90;;;;;;4206460;28;20047;-63
2021/03/25 07:46:29;;;;;;;13.73;4.20;;;9.50;48.80;;;;;;4204430;28;20436;-64
2021/03/25 07:48:30;;;;;;;8.97;4.27;;;9.50;51.00;;;;;;4205907;28;20028;-63
2021/03/25 07:50:35;;;;;;;10.63;4.20;;;9.80;51.10;;;;;;4204820;28;20057;-65
2021/03/25 07:52:36;;;;;;;8.63;4.10;;;10.00;50.50;;;;;;4206372;28;20407;-64
2021/03/25 07:54:42;;;;;;;8.97;3.57;;;9.90;50.30;;;;;;4204546;28;20037;-64
2021/03/25 07:56:53;;;;;;;9.03;3.33;;;10.20;50.60;;;;;;4205904;28;20529;-63
2021/03/25 07:58:54;;;;;;;13.00;4.40;;;10.50;48.30;;;;;;4203371;28;20101;-65
2021/03/25 08:01:22;;;;;;;22.37;9.13;;;10.50;49.10;;;;;;4205221;28;20470;-67
2021/03/25 08:03:23;;;;;;;17.87;7.00;;;10.30;48.30;;;;;;4204365;28;20070;-64
2021/03/25 08:05:30;;;;;;;9.10;5.07;;;10.30;48.90;;;;;;4206717;28;20450;-63
2021/03/25 08:07:36;;;;;;;16.27;8.70;;;10.00;48.40;;;;;;4204491;28;20040;-64
2021/03/25 08:09:48;;;;;;;15.07;5.77;;;9.50;48.00;;;;;;4205603;28;20357;-67
2021/03/25 08:11:49;;;;;;;9.80;3.00;;;9.10;47.30;;;;;;4204509;28;20525;-66
2021/03/25 08:13:57;;;;;;;12.07;3.77;;;8.80;48.60;;;;;;4204430;28;20081;-65
2021/03/25 08:16:10;;;;;;;4.80;2.43;;;8.90;47.70;;;;;;4204479;28;20077;-66
2021/03/25 08:18:20;;;;;;;7.20;2.10;;;8.50;46.70;;;;;;4205596;28;20093;-65
2021/03/25 08:20:47;;;;;;;13.87;3.87;;;8.00;47.60;;;;;;4204346;28;20025;-66
2021/03/25 08:22:51;;;;;;;10.63;3.07;;;8.10;47.00;;;;;;4207434;28;20036;-64
2021/03/25 08:25:26;;;;;;;20.27;4.17;;;7.90;47.20;;;;;;4207608;28;20373;-68
2021/03/25 08:27:56;;;;;;;15.87;3.20;;;7.50;47.00;;;;;;4208175;28;20070;-65
2021/03/25 08:30:25;;;;;;;9.10;2.57;;;7.30;48.00;;;;;;4207625;28;20093;-68
2021/03/25 08:32:55;;;;;;;11.70;3.20;;;6.70;47.30;;;;;;4209403;28;20044;-69
2021/03/25 08:35:10;;;;;;;11.05;5.40;;;6.80;48.80;;;;;;4208406;28;20445;-65
2021/03/25 08:37:20;;;;;;;8.83;4.10;;;7.10;48.60;;;;;;4208297;28;20028;-66
2021/03/25 08:39:34;;;;;;;5.10;2.85;;;7.50;48.30;;;;;;4207896;28;20032;-68
2021/03/25 08:41:50;;;;;;;3.87;2.10;;;7.80;48.00;;;;;;4207908;28;20094;-64
2021/03/25 08:44:16;;;;;;;5.47;2.20;;;7.20;45.90;;;;;;4208028;28;20063;-65
2021/03/25 08:46:26;;;;;;;8.03;2.60;;;7.10;48.00;;;;;;4207612;28;20040;-65
2021/03/25 08:48:44;;;;;;;4.13;2.03;;;7.20;47.90;;;;;;4208471;28;20092;-68
2021/03/25 08:50:48;;;;;;;9.90;3.17;;;7.10;48.40;;;;;;4207617;28;20020;-63
2021/03/25 08:52:51;;;;;;;6.73;2.43;;;7.00;48.70;;;;;;4208763;28;20116;-64
2021/03/25 08:55:02;;;;;;;9.20;2.63;;;7.10;47.30;;;;;;4207687;28;20040;-64
2021/03/25 08:57:20;;;;;;;10.73;3.27;;;6.90;47.60;;;;;;4208423;28;20024;-63
2021/03/25 08:59:36;;;;;;;14.83;3.80;;;6.50;47.10;;;;;;4207229;28;20310;-64
2021/03/25 09:02:12;;;;;;;22.13;3.50;;;6.60;48.70;;;;;;4208486;28;20261;-64
2021/03/25 09:04:16;;;;;;;6.77;2.17;;;6.70;48.70;;;;;;4201585;28;20765;-64
2021/03/25 09:06:22;;;;;;;13.03;3.20;;;6.80;49.10;;;;;;4208904;28;20272;-65
2021/03/25 09:08:27;;;;;;;7.50;3.17;;;7.00;49.00;;;;;;4207419;28;20370;-64
2021/03/25 09:10:28;;;;;;;7.13;2.63;;;7.30;48.70;;;;;;4208920;28;20261;-64
2021/03/25 09:12:32;;;;;;;6.50;3.13;;;7.20;46.80;;;;;;4206990;28;20288;-64
2021/03/25 09:14:34;;;;;;;5.53;3.60;;;7.10;47.30;;;;;;4208057;28;20276;-64
2021/03/25 09:16:36;;;;;;;7.07;4.53;;;7.30;47.60;;;;;;4207078;28;20268;-64
2021/03/25 09:18:44;;;;;;;11.60;5.03;;;7.50;47.70;;;;;;4207928;28;20272;-70
2021/03/25 09:20:49;;;;;;;7.23;3.57;;;7.80;47.70;;;;;;4206073;28;20265;-67
2021/03/25 09:22:55;;;;;;;4.83;1.93;;;8.00;47.40;;;;;;4207974;28;20032;-65
2021/03/25 09:25:15;;;;;;;5.97;2.60;;;8.30;47.30;;;;;;4207608;28;20063;-65
2021/03/25 09:27:51;;;;;;;9.27;2.90;;;8.10;45.10;;;;;;4207559;28;20152;-65
2021/03/25 09:30:01;;;;;;;32.57;5.63;;;7.70;44.70;;;;;;4206905;28;20482;-67
2021/03/25 09:32:06;;;;;;;8.73;3.53;;;7.20;46.00;;;;;;4208143;28;20069;-65
2021/03/25 09:34:10;;;;;;;8.87;2.50;;;7.30;47.00;;;;;;4206098;28;20418;-65
2021/03/25 09:36:18;;;;;;;7.83;2.73;;;7.30;46.00;;;;;;4208281;28;20074;-66
2021/03/25 09:38:39;;;;;;;8.60;3.17;;;6.80;46.50;;;;;;4206407;28;20024;-64
2021/03/25 09:40:47;;;;;;;9.67;4.03;;;7.00;46.50;;;;;;4207728;28;20153;-64
2021/03/25 09:43:26;;;;;;;11.80;4.03;;;7.30;47.20;;;;;;4206620;28;20044;-64
2021/03/25 09:45:35;;;;;;;4.60;2.23;;;7.40;45.80;;;;;;4208130;28;20257;-64
2021/03/25 09:47:37;;;;;;;7.30;3.67;;;7.50;46.30;;;;;;4206273;28;20357;-63
2021/03/25 09:50:00;;;;;;;6.30;2.70;;;7.40;45.90;;;;;;4208174;28;20112;-65
2021/03/25 09:52:08;;;;;;;4.70;2.37;;;7.30;46.00;;;;;;4201989;28;20304;-64
2021/03/25 09:54:26;;;;;;;6.70;2.33;;;7.60;46.80;;;;;;4207991;28;20097;-64
2021/03/25 09:56:28;;;;;;;7.13;2.30;;;7.90;46.50;;;;;;4206012;28;21028;-64
2021/03/25 09:58:43;;;;;;;3.20;1.90;;;8.00;46.10;;;;;;4207587;28;20369;-64
2021/03/25 10:00:44;;;;;;;2.80;1.70;;;8.00;45.40;;;;;;4205801;28;20164;-64
2021/03/25 10:02:51;;;;;;;6.03;3.10;;;8.00;45.80;;;;;;4207693;28;20028;-64
2021/03/25 10:05:36;;;;;;;7.60;2.47;;;7.90;44.90;;;;;;4206546;28;20466;-65
2021/03/25 10:07:38;;;;;;;7.13;2.33;;;7.80;44.80;;;;;;4207247;28;21069;-65
2021/03/25 10:10:19;;;;;;;5.87;2.10;;;7.80;46.00;;;;;;4205675;28;20506;-65
2021/03/25 10:13:06;;;;;;;4.28;2.25;;;8.00;45.50;;;;;;4206379;28;20372;-64
2021/03/25 10:15:27;;;;;;;4.97;2.63;;;8.00;45.00;;;;;;4198531;28;20085;-66
2021/03/25 10:17:47;;;;;;;7.23;2.47;;;7.70;44.70;;;;;;4205658;28;20062;-64
2021/03/25 10:19:48;;;;;;;;;;;7.40;45.90;;;;;;4207607;28;20040;-64
2021/03/25 10:22:00;;;;;;;5.60;1.87;;;7.50;44.50;;;;;;4205210;28;19965;-64
2021/03/25 10:24:02;;;;;;;5.93;2.07;;;7.50;45.30;;;;;;4207315;28;20074;-64
2021/03/25 10:26:15;;;;;;;4.20;2.20;;;7.70;46.00;;;;;;4205237;28;20511;-65
2021/03/25 10:28:23;;;;;;;5.37;2.87;;;7.80;45.90;;;;;;4207673;28;20101;-68
2021/03/25 10:30:32;;;;;;;8.73;2.73;;;7.80;46.20;;;;;;4205156;28;20032;-65
2021/03/25 10:32:43;;;;;;;7.07;2.53;;;7.90;46.40;;;;;;4206837;28;20486;-68
2021/03/25 10:34:48;;;;;;;10.73;2.17;;;7.90;45.70;;;;;;4205639;28;20036;-66
2021/03/25 10:36:58;;;;;;;7.93;2.10;;;7.90;45.20;;;;;;4206991;28;20082;-69
2021/03/25 10:39:01;;;;;;;9.00;2.33;;;7.90;45.00;;;;;;4205216;28;20036;-68
2021/03/25 10:41:03;;;;;;;8.63;3.13;;;7.60;44.90;;;;;;4205483;28;20513;-65
2021/03/25 10:43:25;;;;;;;6.37;2.90;;;7.40;45.20;;;;;;4205448;28;20537;-67
2021/03/25 10:45:37;;;;;;;9.87;2.00;;;7.50;45.20;;;;;;4205482;28;20040;-64
2021/03/25 10:47:39;;;;;;;8.53;2.70;;;7.40;43.80;;;;;;4204402;28;20024;-65
2021/03/25 10:49:49;;;;;;;4.47;2.30;;;7.30;45.10;;;;;;4206831;28;20089;-65
2021/03/25 10:51:52;;;;;;;17.27;3.57;;;7.30;44.50;;;;;;4204978;28;20077;-66
2021/03/25 10:53:56;;;;;;;8.33;2.30;;;7.10;45.00;;;;;;4206539;28;20036;-64
2021/03/25 10:56:11;;;;;;;11.27;3.60;;;7.00;44.20;;;;;;4205387;28;20760;-66
2021/03/25 10:58:26;;;;;;;5.17;2.67;;;7.20;44.50;;;;;;4206354;28;20127;-66
2021/03/25 11:00:37;;;;;;;5.30;2.43;;;7.40;45.00;;;;;;4204796;28;20085;-67
2021/03/25 11:02:42;;;;;;;5.50;2.60;;;7.60;45.00;;;;;;4206409;28;20484;-64
2021/03/25 11:04:44;;;;;;;4.53;2.23;;;7.60;45.00;;;;;;4205615;28;20383;-66
2021/03/25 11:06:45;;;;;;;6.13;2.43;;;7.80;45.30;;;;;;4205887;28;20078;-66
2021/03/25 11:08:47;;;;;;;5.27;2.40;;;7.90;44.90;;;;;;4205818;28;20012;-66
2021/03/25 11:10:51;;;;;;;3.67;2.33;;;8.00;44.40;;;;;;4204350;28;20074;-65
2021/03/25 11:12:57;;;;;;;6.13;2.37;;;8.20;44.70;;;;;;4187780;28;20110;-65
2021/03/25 11:15:08;;;;;;;3.73;1.93;;;8.40;44.40;;;;;;4204552;28;20085;-68
2021/03/25 11:17:14;;;;;;;6.15;2.05;;;8.30;43.90;;;;;;4205926;28;20016;-68
2021/03/25 11:19:16;;;;;;;4.57;2.20;;;8.40;44.10;;;;;;4204708;28;20040;-65